createdAt,value
2023-01-13T00:00:06.784Z,95895.41
2023-01-13T00:02:33.169Z,95896.41
2023-01-13T00:04:59.557Z,95883.22
2023-01-13T00:07:26.225Z,95890.38
2023-01-13T00:09:52.526Z,95879.03
2023-01-13T00:12:18.883Z,95877.84
2023-01-13T00:14:45.800Z,95875.25
2023-01-13T00:17:12.512Z,95866.53
2023-01-13T00:19:38.868Z,95863.03
2023-01-13T00:22:06.305Z,95853.00
2023-01-13T00:24:33.025Z,95841.00
2023-01-13T00:26:59.387Z,95845.50
2023-01-13T00:29:25.702Z,95857.25
2023-01-13T00:31:52.637Z,95854.22
2023-01-13T00:34:18.994Z,95852.41
2023-01-13T00:36:45.585Z,95847.19
2023-01-13T00:39:12.116Z,95846.56
2023-01-13T00:41:56.971Z,95849.78
2023-01-13T00:44:23.683Z,95847.81
2023-01-13T00:46:50.447Z,95843.56
2023-01-13T00:49:16.815Z,95840.53
2023-01-13T00:51:43.158Z,95851.31
2023-01-13T00:54:09.950Z,95846.03
2023-01-13T00:56:40.999Z,95847.81
2023-01-13T00:59:11.691Z,95844.16
2023-01-13T01:01:38.490Z,95843.94
2023-01-13T01:04:05.102Z,95836.25
2023-01-13T01:06:32.102Z,95833.25
2023-01-13T01:08:58.509Z,95828.53
2023-01-13T01:11:31.012Z,95846.66
2023-01-13T01:13:59.614Z,95838.88
2023-01-13T01:16:28.803Z,95826.84
2023-01-13T01:18:56.265Z,95814.84
2023-01-13T01:21:24.625Z,95813.59
2023-01-13T01:23:51.039Z,95821.09
2023-01-13T01:26:20.492Z,95810.53
2023-01-13T01:28:48.164Z,95805.66
2023-01-13T01:31:20.774Z,95802.84
2023-01-13T01:33:48.140Z,95804.44
2023-01-13T01:36:16.648Z,95798.38
2023-01-13T01:38:43.721Z,95807.84
2023-01-13T01:41:15.356Z,95809.47
2023-01-13T01:44:00.635Z,95806.28
2023-01-13T01:46:28.052Z,95808.09
2023-01-13T01:49:00.583Z,95803.31
2023-01-13T01:51:30.620Z,95798.91
2023-01-13T01:53:59.601Z,95797.41
2023-01-13T01:56:26.074Z,95812.53
2023-01-13T01:58:53.947Z,95802.56
2023-01-13T02:01:20.579Z,95803.47
2023-01-13T02:03:56.639Z,95798.66
2023-01-13T02:06:23.808Z,95793.78
2023-01-13T02:08:51.722Z,95793.00
2023-01-13T02:11:54.269Z,95791.13
2023-01-13T02:14:25.039Z,95796.63
2023-01-13T02:16:58.721Z,95781.44
2023-01-13T02:19:36.863Z,95782.84
2023-01-13T02:22:22.826Z,95785.72
2023-01-13T02:25:28.081Z,95771.09
2023-01-13T02:28:12.617Z,95777.09
2023-01-13T02:31:10.928Z,95770.84
2023-01-13T02:34:04.124Z,95780.31
2023-01-13T02:36:48.905Z,95779.94
2023-01-13T02:39:45.203Z,95767.38
2023-01-13T02:42:55.453Z,95756.69
2023-01-13T02:45:44.577Z,95758.31
2023-01-13T02:48:13.884Z,95750.81
2023-01-13T02:50:47.249Z,95752.00
2023-01-13T02:53:28.848Z,95737.19
2023-01-13T02:55:59.497Z,95738.03
2023-01-13T02:58:29.475Z,95742.50
2023-01-13T03:00:56.952Z,95743.09
2023-01-13T03:03:24.313Z,95744.25
2023-01-13T03:05:55.810Z,95742.47
2023-01-13T03:08:33.882Z,95729.06
2023-01-13T03:11:12.742Z,95725.66
2023-01-13T03:14:08.348Z,95726.06
2023-01-13T03:16:34.592Z,95729.06
2023-01-13T03:19:30.559Z,95725.66
2023-01-13T03:22:03.685Z,95729.88
2023-01-13T03:24:49.458Z,95722.59
2023-01-13T03:27:30.407Z,95723.84
2023-01-13T03:30:21.736Z,95720.41
2023-01-13T03:32:59.310Z,95729.31
2023-01-13T03:35:39.388Z,95708.03
2023-01-13T03:38:12.308Z,95711.06
2023-01-13T03:40:50.654Z,95704.97
2023-01-13T03:43:42.721Z,95709.41
2023-01-13T03:46:16.971Z,95703.38
2023-01-13T03:48:46.503Z,95705.41
2023-01-13T03:51:19.625Z,95709.88
2023-01-13T03:53:53.548Z,95700.13
2023-01-13T03:56:30.750Z,95703.78
2023-01-13T03:58:58.936Z,95687.56
2023-01-13T04:01:32.702Z,95699.91
2023-01-13T04:04:10.305Z,95704.94
2023-01-13T04:07:09.085Z,95705.41
2023-01-13T04:09:55.672Z,95710.25
2023-01-13T04:12:48.318Z,95709.84
2023-01-13T04:15:17.625Z,95723.19
2023-01-13T04:17:44.176Z,95723.84
2023-01-13T04:20:11.337Z,95714.06
2023-01-13T04:22:37.793Z,95719.56
2023-01-13T04:25:04.858Z,95714.31
2023-01-13T04:27:31.582Z,95713.91
2023-01-13T04:29:57.913Z,95707.81
2023-01-13T04:32:24.588Z,95699.66
2023-01-13T04:34:51.310Z,95708.56
2023-01-13T04:37:17.636Z,95704.31
2023-01-13T04:39:43.978Z,95707.34
2023-01-13T04:42:10.693Z,95705.31
2023-01-13T04:44:37.065Z,95703.53
2023-01-13T04:47:03.750Z,95708.19
2023-01-13T04:49:30.588Z,95706.16
2023-01-13T04:51:57.266Z,95701.16
2023-01-13T04:54:24.006Z,95701.50
2023-01-13T04:56:50.333Z,95686.28
2023-01-13T04:59:17.018Z,95689.53
2023-01-13T05:01:43.448Z,95693.16
2023-01-13T05:04:10.022Z,95673.53
2023-01-13T05:06:36.600Z,95678.97
2023-01-13T05:09:03.199Z,95687.09
2023-01-13T05:11:48.280Z,95682.06
2023-01-13T05:14:33.031Z,95694.00
2023-01-13T05:17:02.507Z,95696.06
2023-01-13T05:19:34.001Z,95683.84
2023-01-13T05:22:20.897Z,95674.34
2023-01-13T05:25:06.289Z,95677.63
2023-01-13T05:27:34.120Z,95679.03
2023-01-13T05:30:00.837Z,95677.38
2023-01-13T05:32:30.433Z,95684.22
2023-01-13T05:34:57.141Z,95689.13
2023-01-13T05:37:24.258Z,95684.69
2023-01-13T05:40:09.130Z,95689.91
2023-01-13T05:42:54.726Z,95683.84
2023-01-13T05:45:21.510Z,95699.19
2023-01-13T05:47:48.280Z,95697.66
2023-01-13T05:50:15.038Z,95691.50
2023-01-13T05:52:41.648Z,95692.16
2023-01-13T05:55:08.636Z,95707.84
2023-01-13T05:57:35.011Z,95722.81
2023-01-13T06:00:01.839Z,95720.41
2023-01-13T06:02:28.198Z,95712.50
2023-01-13T06:04:54.502Z,95711.53
2023-01-13T06:07:21.174Z,95710.50
2023-01-13T06:09:47.538Z,95706.72
2023-01-13T06:12:14.688Z,95712.81
2023-01-13T06:14:41.636Z,95709.59
2023-01-13T06:17:14.200Z,95710.81
2023-01-13T06:19:41.721Z,95709.19
2023-01-13T06:22:21.557Z,95709.22
2023-01-13T06:24:50.174Z,95705.97
2023-01-13T06:27:17.130Z,95708.78
2023-01-13T06:29:43.607Z,95698.25
2023-01-13T06:32:17.384Z,95710.22
2023-01-13T06:34:47.967Z,95696.63
2023-01-13T06:37:20.222Z,95685.69
2023-01-13T06:39:46.801Z,95690.97
2023-01-13T06:42:32.410Z,95688.09
2023-01-13T06:44:58.765Z,95690.53
2023-01-13T06:47:25.638Z,95689.72
2023-01-13T06:49:52.328Z,95684.03
2023-01-13T06:52:19.062Z,95675.16
2023-01-13T06:54:45.394Z,95685.69
2023-01-13T06:57:12.245Z,95683.06
2023-01-13T06:59:38.559Z,95669.03
2023-01-13T07:02:05.291Z,95681.63
2023-01-13T07:04:31.685Z,95685.28
2023-01-13T07:06:58.037Z,95689.94
2023-01-13T07:09:24.460Z,95688.94
2023-01-13T07:11:52.625Z,95685.91
2023-01-13T07:14:38.083Z,95685.09
2023-01-13T07:17:04.742Z,95683.28
2023-01-13T07:19:31.153Z,95682.69
2023-01-13T07:21:57.692Z,95697.09
2023-01-13T07:24:24.130Z,95685.94
2023-01-13T07:26:51.621Z,95695.06
2023-01-13T07:29:18.610Z,95707.25
2023-01-13T07:31:45.202Z,95698.09
2023-01-13T07:34:11.693Z,95701.97
2023-01-13T07:36:39.552Z,95690.38
2023-01-13T07:39:07.126Z,95695.44
2023-01-13T07:41:52.281Z,95697.09
2023-01-13T07:44:18.676Z,95686.94
2023-01-13T07:46:45.062Z,95695.88
2023-01-13T07:49:12.053Z,95687.53
2023-01-13T07:51:39.679Z,95686.31
2023-01-13T07:54:06.721Z,95694.47
2023-01-13T07:56:33.599Z,95701.16
2023-01-13T07:59:00.940Z,95692.22
2023-01-13T08:01:28.066Z,95676.59
2023-01-13T08:03:56.490Z,95678.63
2023-01-13T08:06:23.235Z,95678.41
2023-01-13T08:08:49.924Z,95686.31
2023-01-13T08:11:16.694Z,95684.13
2023-01-13T08:13:43.220Z,95675.16
2023-01-13T08:16:12.367Z,95681.25
2023-01-13T08:18:40.148Z,95680.25
2023-01-13T08:21:12.844Z,95679.22
2023-01-13T08:23:41.369Z,95694.88
2023-01-13T08:26:11.109Z,95695.06
2023-01-13T08:28:40.339Z,95693.25
2023-01-13T08:31:09.292Z,95710.94
2023-01-13T08:33:36.383Z,95706.03
2023-01-13T08:36:06.372Z,95703.63
2023-01-13T08:38:34.669Z,95691.41
2023-01-13T08:41:02.857Z,95704.81
2023-01-13T08:43:29.275Z,95721.88
2023-01-13T08:46:00.041Z,95710.28
2023-01-13T08:48:29.670Z,95706.84
2023-01-13T08:51:09.199Z,95712.53
2023-01-13T08:53:35.959Z,95716.19
2023-01-13T08:56:02.423Z,95727.38
2023-01-13T08:58:29.369Z,95724.50
2023-01-13T09:00:55.992Z,95700.56
2023-01-13T09:03:23.204Z,95702.38
2023-01-13T09:05:49.643Z,95705.59
2023-01-13T09:08:16.104Z,95712.94
2023-01-13T09:10:43.003Z,95713.34
2023-01-13T09:13:12.950Z,95703.78
2023-01-13T09:15:45.598Z,95714.69
2023-01-13T09:18:12.551Z,95715.28
2023-01-13T09:20:39.210Z,95724.44
2023-01-13T09:23:09.732Z,95703.00
2023-01-13T09:25:36.836Z,95719.03
2023-01-13T09:28:05.075Z,95723.53
2023-01-13T09:30:31.633Z,95716.06
2023-01-13T09:33:18.276Z,95726.91
2023-01-13T09:35:44.788Z,95726.41
2023-01-13T09:38:11.508Z,95745.38
2023-01-13T09:40:39.647Z,95730.69
2023-01-13T09:43:42.487Z,95736.25
2023-01-13T09:46:36.518Z,95740.38
2023-01-13T09:49:04.348Z,95741.41
2023-01-13T09:51:38.931Z,95739.66
2023-01-13T09:54:13.997Z,95743.31
2023-01-13T09:56:40.530Z,95741.75
2023-01-13T09:59:11.481Z,95742.53
2023-01-13T10:01:43.631Z,95739.69
2023-01-13T10:04:15.391Z,95745.53
2023-01-13T10:06:47.457Z,95733.50
2023-01-13T10:09:26.462Z,95742.91
2023-01-13T10:12:14.788Z,95730.28
2023-01-13T10:14:56.137Z,95739.66
2023-01-13T10:17:32.885Z,95743.31
2023-01-13T10:20:25.019Z,95737.66
2023-01-13T10:23:10.170Z,95741.34
2023-01-13T10:26:02.350Z,95743.78
2023-01-13T10:28:28.704Z,95743.16
2023-01-13T10:30:55.092Z,95738.66
2023-01-13T10:33:28.226Z,95742.09
2023-01-13T10:35:54.821Z,95744.53
2023-01-13T10:38:36.050Z,95753.50
2023-01-13T10:41:20.263Z,95741.75
2023-01-13T10:43:52.570Z,95738.06
2023-01-13T10:46:20.155Z,95725.69
2023-01-13T10:48:46.921Z,95724.63
2023-01-13T10:51:27.351Z,95719.75
2023-01-13T10:54:20.417Z,95724.78
2023-01-13T10:56:46.761Z,95729.41
2023-01-13T10:59:14.892Z,95725.91
2023-01-13T11:02:13.090Z,95731.97
2023-01-13T11:04:55.785Z,95743.06
2023-01-13T11:07:42.088Z,95755.88
2023-01-13T11:10:14.479Z,95765.44
2023-01-13T11:12:57.022Z,95773.78
2023-01-13T11:15:33.732Z,95772.22
2023-01-13T11:18:09.996Z,95772.69
2023-01-13T11:20:41.102Z,95783.66
2023-01-13T11:23:16.321Z,95782.44
2023-01-13T11:25:47.114Z,95779.75
2023-01-13T11:28:48.262Z,95782.00
2023-01-13T11:31:17.916Z,95770.59
2023-01-13T11:33:51.503Z,95782.59
2023-01-13T11:36:24.799Z,95780.72
2023-01-13T11:38:55.100Z,95788.41
2023-01-13T11:41:30.553Z,95774.84
2023-01-13T11:44:21.145Z,95760.41
2023-01-13T11:46:50.197Z,95767.91
2023-01-13T11:49:26.475Z,95765.66
2023-01-13T11:52:00.575Z,95764.25
2023-01-13T11:54:47.652Z,95764.00
2023-01-13T11:57:35.083Z,95760.16
2023-01-13T12:00:31.199Z,95747.78
2023-01-13T12:03:18.277Z,95731.13
2023-01-13T12:06:04.403Z,95727.13
2023-01-13T12:09:03.210Z,95741.28
2023-01-13T12:12:27.640Z,95779.09
2023-01-13T12:15:13.012Z,95835.47
2023-01-13T12:17:57.472Z,95830.97
2023-01-13T12:20:29.865Z,95814.56
2023-01-13T12:23:08.798Z,95834.00
2023-01-13T12:25:42.180Z,95827.38
2023-01-13T12:28:15.725Z,95822.00
2023-01-13T12:30:50.918Z,95819.50
2023-01-13T12:33:43.742Z,95827.03
2023-01-13T12:36:33.021Z,95819.88
2023-01-13T12:39:26.671Z,95829.66
2023-01-13T12:42:23.412Z,95834.00
2023-01-13T12:45:12.050Z,95834.31
2023-01-13T12:47:48.331Z,95863.25
2023-01-13T12:50:29.188Z,95861.78
2023-01-13T12:53:00.313Z,95881.47
2023-01-13T12:55:34.752Z,95867.63
2023-01-13T12:58:07.246Z,95866.69
2023-01-13T13:01:00.673Z,95856.19
2023-01-13T13:03:30.150Z,95861.22
2023-01-13T13:06:15.900Z,95856.53
2023-01-13T13:09:05.744Z,95851.06
2023-01-13T13:11:58.916Z,95843.81
2023-01-13T13:14:38.169Z,95838.34
2023-01-13T13:17:25.436Z,95822.44
2023-01-13T13:19:52.748Z,95817.66
2023-01-13T13:22:21.441Z,95828.69
2023-01-13T13:24:50.870Z,95848.38
2023-01-13T13:27:35.758Z,95841.28
2023-01-13T13:30:11.930Z,95855.91
2023-01-13T13:32:38.267Z,95874.81
2023-01-13T13:35:10.380Z,95879.06
2023-01-13T13:38:17.245Z,95884.31
2023-01-13T13:41:06.238Z,95874.81
2023-01-13T13:43:59.096Z,95861.38
2023-01-13T13:46:45.933Z,95862.25
2023-01-13T13:49:14.482Z,95867.78
2023-01-13T13:52:10.798Z,95878.38
2023-01-13T13:54:43.145Z,95882.78
2023-01-13T13:57:34.376Z,95884.34
2023-01-13T14:00:01.326Z,95864.63
2023-01-13T14:02:34.332Z,95875.16
2023-01-13T14:05:31.642Z,95869.91
2023-01-13T14:08:01.281Z,95875.38
2023-01-13T14:10:36.916Z,95888.91
2023-01-13T14:13:14.262Z,95898.03
2023-01-13T14:15:41.187Z,95896.22
2023-01-13T14:18:17.874Z,95904.91
2023-01-13T14:20:52.547Z,95916.47
2023-01-13T14:23:22.823Z,95920.72
2023-01-13T14:25:51.866Z,95920.47
2023-01-13T14:28:32.243Z,95922.06
2023-01-13T14:30:59.546Z,95937.91
2023-01-13T14:33:36.578Z,95934.06
2023-01-13T14:36:06.848Z,95938.53
2023-01-13T14:38:33.492Z,95948.06
2023-01-13T14:41:11.126Z,95937.16
2023-01-13T14:43:42.809Z,95955.78
2023-01-13T14:46:09.445Z,95945.81
2023-01-13T14:48:36.707Z,95960.00
2023-01-13T14:51:21.289Z,95957.38
2023-01-13T14:53:48.612Z,95962.81
2023-01-13T14:56:41.118Z,95968.53
2023-01-13T14:59:32.459Z,95952.25
2023-01-13T15:02:03.575Z,95953.09
2023-01-13T15:04:39.624Z,95964.81
2023-01-13T15:07:22.668Z,95973.75
2023-01-13T15:09:54.476Z,95978.56
2023-01-13T15:12:37.686Z,95980.22
2023-01-13T15:15:20.301Z,95986.38
2023-01-13T15:17:52.701Z,95984.34
2023-01-13T15:20:22.844Z,95981.16
2023-01-13T15:22:50.438Z,95984.41
2023-01-13T15:25:17.465Z,95986.06
2023-01-13T15:27:45.634Z,95998.91
2023-01-13T15:30:26.310Z,96000.13
2023-01-13T15:32:55.988Z,96002.91
2023-01-13T15:35:26.707Z,96008.94
2023-01-13T15:37:56.198Z,96029.03
2023-01-13T15:40:32.547Z,96021.31
2023-01-13T15:46:19.935Z,96051.19
2023-01-13T15:48:46.779Z,96060.03
2023-01-13T15:51:21.453Z,96066.56
2023-01-13T15:53:47.830Z,96077.84
2023-01-13T15:56:24.662Z,96085.28
2023-01-13T15:58:51.671Z,96077.59
2023-01-13T16:01:18.340Z,96079.81
2023-01-13T16:03:44.784Z,96081.63
2023-01-13T16:06:24.369Z,96080.25
2023-01-13T16:08:51.098Z,96080.09
2023-01-13T16:11:17.941Z,96090.91
2023-01-13T16:13:44.338Z,96079.66
2023-01-13T16:16:21.830Z,96086.75
2023-01-13T16:18:48.711Z,96099.00
2023-01-13T16:21:16.321Z,96103.63
2023-01-13T16:23:42.768Z,96100.19
2023-01-13T16:26:24.484Z,96109.78
2023-01-13T16:28:53.102Z,96116.44
2023-01-13T16:31:26.561Z,96111.97
2023-01-13T16:33:53.383Z,96121.06
2023-01-13T16:36:21.795Z,96117.13
2023-01-13T16:38:50.696Z,96120.19
2023-01-13T16:41:18.155Z,96126.03
2023-01-13T16:43:45.053Z,96135.97
2023-01-13T16:46:29.398Z,96127.44
2023-01-13T16:49:01.424Z,96143.81
2023-01-13T16:51:28.163Z,96150.97
2023-01-13T16:53:54.540Z,96156.84
2023-01-13T16:56:28.342Z,96153.53
2023-01-13T16:58:57.754Z,96170.44
2023-01-13T17:01:30.239Z,96176.69
2023-01-13T17:03:58.279Z,96167.47
2023-01-13T17:06:29.025Z,96169.44
2023-01-13T17:09:00.751Z,96175.28
2023-01-13T17:11:27.116Z,96173.13
2023-01-13T17:13:53.487Z,96177.75
2023-01-13T17:16:22.893Z,96187.72
2023-01-13T17:18:49.382Z,96184.91
2023-01-13T17:21:17.188Z,96185.75
2023-01-13T17:23:43.908Z,96190.22
2023-01-13T17:26:28.363Z,96196.03
2023-01-13T17:28:54.982Z,96194.66
2023-01-13T17:31:21.368Z,96198.84
2023-01-13T17:33:47.750Z,96196.69
2023-01-13T17:36:14.435Z,96192.97
2023-01-13T17:38:40.756Z,96186.44
2023-01-13T17:41:07.124Z,96189.25
2023-01-13T17:43:34.042Z,96189.53
2023-01-13T17:46:00.484Z,96191.75
2023-01-13T17:48:27.294Z,96198.75
2023-01-13T17:50:54.121Z,96203.84
2023-01-13T17:53:20.994Z,96198.47
2023-01-13T17:55:55.101Z,96196.88
2023-01-13T17:58:22.842Z,96207.25
2023-01-13T18:00:49.743Z,96203.63
2023-01-13T18:03:17.428Z,96210.25
2023-01-13T18:05:45.540Z,96206.91
2023-01-13T18:08:11.880Z,96205.88
2023-01-13T18:10:38.551Z,96202.06
2023-01-13T18:13:05.197Z,96206.63
2023-01-13T18:15:31.562Z,96205.53
2023-01-13T18:17:58.050Z,96225.69
2023-01-13T18:21:02.893Z,96228.50
2023-01-13T18:23:47.907Z,96213.25
2023-01-13T18:26:37.753Z,96225.53
2023-01-13T18:29:05.044Z,96233.22
2023-01-13T18:31:31.580Z,96238.22
2023-01-13T18:33:58.336Z,96245.47
2023-01-13T18:36:24.724Z,96256.38
2023-01-13T18:38:51.556Z,96272.00
2023-01-13T18:41:37.097Z,96286.69
2023-01-13T18:44:04.015Z,96258.41
2023-01-13T18:46:30.370Z,96277.72
2023-01-13T18:48:57.065Z,96295.75
2023-01-13T18:51:23.501Z,96289.69
2023-01-13T18:53:49.844Z,96278.91
2023-01-13T18:56:16.675Z,96277.13
2023-01-13T18:58:51.347Z,96278.72
2023-01-13T19:01:26.006Z,96270.63
2023-01-13T19:04:00.069Z,96268.94
2023-01-13T19:06:29.577Z,96269.47
2023-01-13T19:09:08.272Z,96287.03
2023-01-13T19:11:36.447Z,96286.59
2023-01-13T19:14:03.303Z,96287.44
2023-01-13T19:16:29.666Z,96291.94
2023-01-13T19:18:56.325Z,96299.56
2023-01-13T19:21:23.309Z,96298.13
2023-01-13T19:23:53.828Z,96300.94
2023-01-13T19:26:20.460Z,96298.66
2023-01-13T19:28:46.856Z,96304.31
2023-01-13T19:31:15.809Z,96297.09
2023-01-13T19:33:42.951Z,96315.84
2023-01-13T19:36:10.955Z,96311.47
2023-01-13T19:38:37.986Z,96312.50
2023-01-13T19:41:12.033Z,96311.66
2023-01-13T19:43:56.963Z,96314.16
2023-01-13T19:46:26.306Z,96320.41
2023-01-13T19:48:52.656Z,96327.31
2023-01-13T19:51:19.001Z,96322.59
2023-01-13T19:53:47.166Z,96326.53
2023-01-13T19:56:14.395Z,96335.06
2023-01-13T19:58:41.927Z,96333.94
2023-01-13T20:01:10.590Z,96341.13
2023-01-13T20:03:37.846Z,96341.63
2023-01-13T20:06:11.572Z,96340.63
2023-01-13T20:08:37.913Z,96355.72
2023-01-13T20:11:22.506Z,96356.34
2023-01-13T20:13:49.448Z,96358.97
2023-01-13T20:16:15.816Z,96362.09
2023-01-13T20:18:42.254Z,96366.19
2023-01-13T20:21:09.376Z,96363.59
2023-01-13T20:23:35.938Z,96361.31
2023-01-13T20:26:02.657Z,96364.28
2023-01-13T20:28:28.973Z,96364.13
2023-01-13T20:30:55.721Z,96365.09
2023-01-13T20:33:22.451Z,96368.22
2023-01-13T20:35:56.950Z,96372.16
2023-01-13T20:38:23.664Z,96377.72
2023-01-13T20:41:00.707Z,96374.75
2023-01-13T20:43:28.066Z,96381.13
2023-01-13T20:45:54.445Z,96390.81
2023-01-13T20:48:20.779Z,96388.81
2023-01-13T20:50:53.136Z,96392.06
2023-01-13T20:53:19.922Z,96405.78
2023-01-13T20:55:46.259Z,96405.97
2023-01-13T20:58:12.584Z,96409.09
2023-01-13T21:00:39.284Z,96418.78
2023-01-13T21:03:05.692Z,96423.06
2023-01-13T21:05:33.575Z,96404.06
2023-01-13T21:07:59.883Z,96406.41
2023-01-13T21:10:26.221Z,96401.28
2023-01-13T21:13:11.821Z,96395.50
2023-01-13T21:15:38.127Z,96397.13
2023-01-13T21:18:22.792Z,96400.41
2023-01-13T21:20:50.745Z,96404.22
2023-01-13T21:23:17.072Z,96401.47
2023-01-13T21:25:43.794Z,96409.16
2023-01-13T21:28:11.574Z,96416.38
2023-01-13T21:30:39.315Z,96410.13
2023-01-13T21:33:06.184Z,96411.44
2023-01-13T21:35:32.992Z,96410.38
2023-01-13T21:37:59.406Z,96413.66
2023-01-13T21:40:25.826Z,96422.63
2023-01-13T21:43:11.153Z,96422.16
2023-01-13T21:45:57.422Z,96429.66
2023-01-13T21:48:23.792Z,96433.69
2023-01-13T21:50:50.102Z,96442.94
2023-01-13T21:53:16.756Z,96445.16
2023-01-13T21:55:43.072Z,96456.56
2023-01-13T21:58:12.986Z,96453.94
2023-01-13T22:00:41.800Z,96454.25
2023-01-13T22:03:10.187Z,96457.22
2023-01-13T22:05:36.972Z,96454.94
2023-01-13T22:08:04.386Z,96458.50
2023-01-13T22:10:30.937Z,96464.66
2023-01-13T22:12:59.875Z,96464.97
2023-01-13T22:15:28.863Z,96460.50
2023-01-13T22:17:56.945Z,96472.34
2023-01-13T22:20:23.280Z,96467.75
2023-01-13T22:22:49.641Z,96480.22
2023-01-13T22:25:17.295Z,96474.53
2023-01-13T22:27:44.671Z,96481.25
2023-01-13T22:30:15.536Z,96481.41
2023-01-13T22:32:42.189Z,96501.56
2023-01-13T22:35:10.525Z,96504.34
2023-01-13T22:37:37.770Z,96512.53
2023-01-13T22:40:06.708Z,96499.13
2023-01-13T22:42:37.024Z,96515.22
2023-01-13T22:45:04.085Z,96514.22
2023-01-13T22:47:31.713Z,96513.81
2023-01-13T22:49:58.030Z,96521.88
2023-01-13T22:52:24.411Z,96532.34
2023-01-13T22:54:51.132Z,96538.28
2023-01-13T22:57:17.539Z,96538.84
2023-01-13T22:59:43.919Z,96534.88
2023-01-13T23:02:10.684Z,96538.28
2023-01-13T23:04:37.219Z,96530.88
2023-01-13T23:07:03.679Z,96516.16
2023-01-13T23:09:30.476Z,96524.34
2023-01-13T23:11:58.351Z,96526.47
2023-01-13T23:14:25.714Z,96520.25
2023-01-13T23:16:52.608Z,96519.09
2023-01-13T23:19:19.448Z,96519.47
2023-01-13T23:21:46.496Z,96509.78
2023-01-13T23:24:12.981Z,96510.28
2023-01-13T23:26:39.840Z,96521.31
2023-01-13T23:29:09.707Z,96529.00
2023-01-13T23:31:36.338Z,96530.28
2023-01-13T23:34:02.862Z,96519.06
2023-01-13T23:36:30.091Z,96534.59
2023-01-13T23:38:58.286Z,96531.94
2023-01-13T23:41:26.409Z,96530.59
2023-01-13T23:43:55.590Z,96525.97
2023-01-13T23:46:22.872Z,96525.06
2023-01-13T23:48:50.534Z,96521.13
2023-01-13T23:51:17.615Z,96522.31
2023-01-13T23:53:48.647Z,96528.94
2023-01-13T23:56:20.764Z,96538.16
2023-01-13T23:58:47.386Z,96545.34
